sensor_id;sensor_type;location;lat;lon;timestamp;P1;durP1;ratioP1;P2;durP2;ratioP2
14088;SDS011;7120;52.890;6.040;2024-03-02T00:00:07;2.70;;;2.50;;
14088;SDS011;7120;52.890;6.040;2024-03-02T00:02:43;3.73;;;2.40;;
14088;SDS011;7120;52.890;6.040;2024-03-02T00:05:13;3.33;;;2.50;;
14088;SDS011;7120;52.890;6.040;2024-03-02T00:07:41;3.07;;;2.43;;
14088;SDS011;7120;52.890;6.040;2024-03-02T00:10:09;3.67;;;2.60;;
14088;SDS011;7120;52.890;6.040;2024-03-02T00:12:36;3.60;;;2.20;;
14088;SDS011;7120;52.890;6.040;2024-03-02T00:15:51;3.27;;;2.70;;
14088;SDS011;7120;52.890;6.040;2024-03-02T00:18:19;2.33;;;2.13;;
14088;SDS011;7120;52.890;6.040;2024-03-02T00:20:48;4.17;;;2.70;;
14088;SDS011;7120;52.890;6.040;2024-03-02T00:23:18;3.00;;;2.40;;
14088;SDS011;7120;52.890;6.040;2024-03-02T00:25:46;2.97;;;2.43;;
14088;SDS011;7120;52.890;6.040;2024-03-02T00:28:14;3.17;;;2.57;;
14088;SDS011;7120;52.890;6.040;2024-03-02T00:30:55;4.30;;;2.47;;
14088;SDS011;7120;52.890;6.040;2024-03-02T00:33:27;3.20;;;2.53;;
14088;SDS011;7120;52.890;6.040;2024-03-02T00:35:56;2.67;;;2.20;;
14088;SDS011;7120;52.890;6.040;2024-03-02T00:38:22;2.60;;;2.40;;
14088;SDS011;7120;52.890;6.040;2024-03-02T00:40:48;2.53;;;2.30;;
14088;SDS011;7120;52.890;6.040;2024-03-02T00:46:08;3.37;;;2.67;;
14088;SDS011;7120;52.890;6.040;2024-03-02T00:48:38;3.50;;;2.60;;
14088;SDS011;7120;52.890;6.040;2024-03-02T00:51:05;3.47;;;2.63;;
14088;SDS011;7120;52.890;6.040;2024-03-02T00:53:30;4.63;;;3.10;;
14088;SDS011;7120;52.890;6.040;2024-03-02T00:56:00;2.83;;;2.40;;
14088;SDS011;7120;52.890;6.040;2024-03-02T00:58:26;3.30;;;2.40;;
14088;SDS011;7120;52.890;6.040;2024-03-02T01:00:51;3.47;;;2.60;;
14088;SDS011;7120;52.890;6.040;2024-03-02T01:03:17;3.07;;;2.50;;
14088;SDS011;7120;52.890;6.040;2024-03-02T01:05:42;3.03;;;2.40;;
14088;SDS011;7120;52.890;6.040;2024-03-02T01:08:08;3.67;;;2.97;;
14088;SDS011;7120;52.890;6.040;2024-03-02T01:10:34;3.67;;;2.70;;
14088;SDS011;7120;52.890;6.040;2024-03-02T01:12:59;5.00;;;2.60;;
14088;SDS011;7120;52.890;6.040;2024-03-02T01:15:25;4.23;;;2.63;;
14088;SDS011;7120;52.890;6.040;2024-03-02T01:17:50;3.83;;;2.50;;
14088;SDS011;7120;52.890;6.040;2024-03-02T01:20:16;5.10;;;2.67;;
14088;SDS011;7120;52.890;6.040;2024-03-02T01:22:42;4.63;;;2.50;;
14088;SDS011;7120;52.890;6.040;2024-03-02T01:25:08;3.00;;;2.40;;
14088;SDS011;7120;52.890;6.040;2024-03-02T01:27:33;2.50;;;1.90;;
14088;SDS011;7120;52.890;6.040;2024-03-02T01:29:59;2.80;;;2.60;;
14088;SDS011;7120;52.890;6.040;2024-03-02T01:32:25;4.67;;;2.50;;
14088;SDS011;7120;52.890;6.040;2024-03-02T01:34:50;4.10;;;2.10;;
14088;SDS011;7120;52.890;6.040;2024-03-02T01:37:15;3.57;;;2.50;;
14088;SDS011;7120;52.890;6.040;2024-03-02T01:39:41;5.97;;;2.63;;
14088;SDS011;7120;52.890;6.040;2024-03-02T01:42:06;4.57;;;2.40;;
14088;SDS011;7120;52.890;6.040;2024-03-02T01:44:32;2.50;;;2.30;;
14088;SDS011;7120;52.890;6.040;2024-03-02T01:46:57;4.30;;;2.00;;
14088;SDS011;7120;52.890;6.040;2024-03-02T01:49:22;2.90;;;2.60;;
14088;SDS011;7120;52.890;6.040;2024-03-02T01:51:48;2.73;;;2.30;;
14088;SDS011;7120;52.890;6.040;2024-03-02T01:54:13;2.40;;;2.20;;
14088;SDS011;7120;52.890;6.040;2024-03-02T01:56:39;3.60;;;2.40;;
14088;SDS011;7120;52.890;6.040;2024-03-02T01:59:04;3.17;;;2.27;;
14088;SDS011;7120;52.890;6.040;2024-03-02T02:01:30;4.17;;;2.30;;
14088;SDS011;7120;52.890;6.040;2024-03-02T02:03:56;3.00;;;2.00;;
14088;SDS011;7120;52.890;6.040;2024-03-02T02:06:21;2.73;;;2.20;;
14088;SDS011;7120;52.890;6.040;2024-03-02T02:08:48;2.63;;;2.43;;
14088;SDS011;7120;52.890;6.040;2024-03-02T02:11:16;3.77;;;2.17;;
14088;SDS011;7120;52.890;6.040;2024-03-02T02:13:42;2.60;;;2.40;;
14088;SDS011;7120;52.890;6.040;2024-03-02T02:16:07;2.57;;;2.10;;
14088;SDS011;7120;52.890;6.040;2024-03-02T02:18:36;3.67;;;2.00;;
14088;SDS011;7120;52.890;6.040;2024-03-02T02:21:02;2.20;;;2.00;;
14088;SDS011;7120;52.890;6.040;2024-03-02T02:23:27;2.27;;;2.07;;
14088;SDS011;7120;52.890;6.040;2024-03-02T02:25:53;2.50;;;2.10;;
14088;SDS011;7120;52.890;6.040;2024-03-02T02:28:18;2.20;;;1.80;;
14088;SDS011;7120;52.890;6.040;2024-03-02T02:30:43;2.00;;;1.80;;
14088;SDS011;7120;52.890;6.040;2024-03-02T02:33:09;3.37;;;2.10;;
14088;SDS011;7120;52.890;6.040;2024-03-02T02:35:34;2.37;;;2.13;;
14088;SDS011;7120;52.890;6.040;2024-03-02T02:38:00;2.00;;;1.80;;
14088;SDS011;7120;52.890;6.040;2024-03-02T02:40:26;2.37;;;2.10;;
14088;SDS011;7120;52.890;6.040;2024-03-02T02:42:51;3.47;;;1.63;;
14088;SDS011;7120;52.890;6.040;2024-03-02T02:45:17;2.20;;;1.67;;
14088;SDS011;7120;52.890;6.040;2024-03-02T02:47:43;2.57;;;1.60;;
14088;SDS011;7120;52.890;6.040;2024-03-02T02:50:09;2.80;;;1.60;;
14088;SDS011;7120;52.890;6.040;2024-03-02T02:52:37;3.00;;;1.67;;
14088;SDS011;7120;52.890;6.040;2024-03-02T02:55:05;3.97;;;1.80;;
14088;SDS011;7120;52.890;6.040;2024-03-02T02:57:35;1.80;;;1.57;;
14088;SDS011;7120;52.890;6.040;2024-03-02T03:00:04;1.87;;;1.67;;
14088;SDS011;7120;52.890;6.040;2024-03-02T03:02:34;1.60;;;1.30;;
14088;SDS011;7120;52.890;6.040;2024-03-02T03:05:00;2.17;;;1.80;;
14088;SDS011;7120;52.890;6.040;2024-03-02T03:07:26;2.90;;;1.80;;
14088;SDS011;7120;52.890;6.040;2024-03-02T03:09:51;2.40;;;1.70;;
14088;SDS011;7120;52.890;6.040;2024-03-02T03:12:16;2.33;;;1.70;;
14088;SDS011;7120;52.890;6.040;2024-03-02T03:14:42;2.00;;;1.60;;
14088;SDS011;7120;52.890;6.040;2024-03-02T03:17:07;2.30;;;1.70;;
14088;SDS011;7120;52.890;6.040;2024-03-02T03:19:33;2.07;;;1.80;;
14088;SDS011;7120;52.890;6.040;2024-03-02T03:21:58;4.50;;;1.67;;
14088;SDS011;7120;52.890;6.040;2024-03-02T03:24:24;2.17;;;1.80;;
14088;SDS011;7120;52.890;6.040;2024-03-02T03:26:49;1.70;;;1.60;;
14088;SDS011;7120;52.890;6.040;2024-03-02T03:29:14;2.13;;;1.50;;
14088;SDS011;7120;52.890;6.040;2024-03-02T03:31:40;2.23;;;1.90;;
14088;SDS011;7120;52.890;6.040;2024-03-02T03:34:05;3.87;;;1.73;;
14088;SDS011;7120;52.890;6.040;2024-03-02T03:36:30;2.83;;;1.90;;
14088;SDS011;7120;52.890;6.040;2024-03-02T03:38:56;2.57;;;1.90;;
14088;SDS011;7120;52.890;6.040;2024-03-02T03:41:21;2.83;;;2.10;;
14088;SDS011;7120;52.890;6.040;2024-03-02T03:43:46;2.70;;;1.87;;
14088;SDS011;7120;52.890;6.040;2024-03-02T03:46:11;1.90;;;1.80;;
14088;SDS011;7120;52.890;6.040;2024-03-02T03:48:37;2.17;;;1.77;;
14088;SDS011;7120;52.890;6.040;2024-03-02T03:51:02;1.90;;;1.63;;
14088;SDS011;7120;52.890;6.040;2024-03-02T03:53:28;3.47;;;1.80;;
14088;SDS011;7120;52.890;6.040;2024-03-02T03:55:53;4.07;;;1.70;;
14088;SDS011;7120;52.890;6.040;2024-03-02T03:58:18;3.83;;;1.90;;
14088;SDS011;7120;52.890;6.040;2024-03-02T04:00:46;3.83;;;1.70;;
14088;SDS011;7120;52.890;6.040;2024-03-02T04:03:12;1.83;;;1.50;;
14088;SDS011;7120;52.890;6.040;2024-03-02T04:05:38;1.70;;;1.40;;
14088;SDS011;7120;52.890;6.040;2024-03-02T04:08:03;1.87;;;1.13;;
14088;SDS011;7120;52.890;6.040;2024-03-02T04:10:29;1.30;;;1.20;;
14088;SDS011;7120;52.890;6.040;2024-03-02T04:12:55;1.20;;;1.10;;
14088;SDS011;7120;52.890;6.040;2024-03-02T04:15:20;2.57;;;1.20;;
14088;SDS011;7120;52.890;6.040;2024-03-02T04:17:48;3.40;;;1.30;;
14088;SDS011;7120;52.890;6.040;2024-03-02T04:20:13;2.00;;;1.23;;
14088;SDS011;7120;52.890;6.040;2024-03-02T04:22:39;1.30;;;1.20;;
14088;SDS011;7120;52.890;6.040;2024-03-02T04:25:04;3.37;;;1.10;;
14088;SDS011;7120;52.890;6.040;2024-03-02T04:27:30;2.90;;;1.23;;
14088;SDS011;7120;52.890;6.040;2024-03-02T04:29:59;1.30;;;1.23;;
14088;SDS011;7120;52.890;6.040;2024-03-02T04:32:25;2.47;;;1.20;;
14088;SDS011;7120;52.890;6.040;2024-03-02T04:34:54;1.33;;;1.17;;
14088;SDS011;7120;52.890;6.040;2024-03-02T04:37:19;1.70;;;1.03;;
14088;SDS011;7120;52.890;6.040;2024-03-02T04:39:45;0.83;;;0.83;;
14088;SDS011;7120;52.890;6.040;2024-03-02T04:42:10;0.67;;;0.60;;
14088;SDS011;7120;52.890;6.040;2024-03-02T04:44:35;0.50;;;0.50;;
14088;SDS011;7120;52.890;6.040;2024-03-02T04:47:03;0.50;;;0.50;;
14088;SDS011;7120;52.890;6.040;2024-03-02T04:49:28;0.80;;;0.60;;
14088;SDS011;7120;52.890;6.040;2024-03-02T04:51:53;0.60;;;0.60;;
14088;SDS011;7120;52.890;6.040;2024-03-02T04:54:19;0.73;;;0.50;;
14088;SDS011;7120;52.890;6.040;2024-03-02T04:56:44;0.70;;;0.70;;
14088;SDS011;7120;52.890;6.040;2024-03-02T04:59:14;0.57;;;0.57;;
14088;SDS011;7120;52.890;6.040;2024-03-02T05:01:39;0.90;;;0.60;;
14088;SDS011;7120;52.890;6.040;2024-03-02T05:04:05;0.70;;;0.70;;
14088;SDS011;7120;52.890;6.040;2024-03-02T05:06:30;0.80;;;0.80;;
14088;SDS011;7120;52.890;6.040;2024-03-02T05:08:55;0.70;;;0.70;;
14088;SDS011;7120;52.890;6.040;2024-03-02T05:11:21;1.40;;;0.93;;
14088;SDS011;7120;52.890;6.040;2024-03-02T05:14:13;1.13;;;1.00;;
14088;SDS011;7120;52.890;6.040;2024-03-02T05:16:38;0.80;;;0.80;;
14088;SDS011;7120;52.890;6.040;2024-03-02T05:19:05;1.10;;;1.10;;
14088;SDS011;7120;52.890;6.040;2024-03-02T05:21:31;0.97;;;0.97;;
14088;SDS011;7120;52.890;6.040;2024-03-02T05:23:57;2.93;;;1.20;;
14088;SDS011;7120;52.890;6.040;2024-03-02T05:26:22;1.20;;;1.20;;
14088;SDS011;7120;52.890;6.040;2024-03-02T05:28:48;1.37;;;1.20;;
14088;SDS011;7120;52.890;6.040;2024-03-02T05:31:16;3.10;;;1.37;;
14088;SDS011;7120;52.890;6.040;2024-03-02T05:33:42;1.60;;;1.50;;
14088;SDS011;7120;52.890;6.040;2024-03-02T05:36:07;1.40;;;1.37;;
14088;SDS011;7120;52.890;6.040;2024-03-02T05:38:36;1.50;;;1.50;;
14088;SDS011;7120;52.890;6.040;2024-03-02T05:41:01;1.53;;;1.53;;
14088;SDS011;7120;52.890;6.040;2024-03-02T05:43:26;1.50;;;1.40;;
14088;SDS011;7120;52.890;6.040;2024-03-02T05:45:52;1.33;;;1.30;;
14088;SDS011;7120;52.890;6.040;2024-03-02T05:48:17;1.27;;;1.27;;
14088;SDS011;7120;52.890;6.040;2024-03-02T05:50:42;1.50;;;1.40;;
14088;SDS011;7120;52.890;6.040;2024-03-02T05:53:08;2.17;;;1.43;;
14088;SDS011;7120;52.890;6.040;2024-03-02T05:55:33;1.50;;;1.40;;
14088;SDS011;7120;52.890;6.040;2024-03-02T05:57:59;1.57;;;1.47;;
14088;SDS011;7120;52.890;6.040;2024-03-02T06:00:56;1.53;;;1.37;;
14088;SDS011;7120;52.890;6.040;2024-03-02T06:03:22;1.70;;;1.60;;
14088;SDS011;7120;52.890;6.040;2024-03-02T06:05:47;1.37;;;1.30;;
14088;SDS011;7120;52.890;6.040;2024-03-02T06:08:14;1.50;;;1.50;;
14088;SDS011;7120;52.890;6.040;2024-03-02T06:10:39;2.23;;;1.73;;
14088;SDS011;7120;52.890;6.040;2024-03-02T06:13:05;1.47;;;1.37;;
14088;SDS011;7120;52.890;6.040;2024-03-02T06:15:30;1.30;;;1.30;;
14088;SDS011;7120;52.890;6.040;2024-03-02T06:17:56;1.63;;;1.53;;
14088;SDS011;7120;52.890;6.040;2024-03-02T06:20:27;1.90;;;1.80;;
14088;SDS011;7120;52.890;6.040;2024-03-02T06:22:55;2.03;;;1.90;;
14088;SDS011;7120;52.890;6.040;2024-03-02T06:25:21;1.97;;;1.87;;
14088;SDS011;7120;52.890;6.040;2024-03-02T06:27:46;2.07;;;1.97;;
14088;SDS011;7120;52.890;6.040;2024-03-02T06:30:12;2.20;;;1.77;;
14088;SDS011;7120;52.890;6.040;2024-03-02T06:32:40;2.57;;;1.90;;
14088;SDS011;7120;52.890;6.040;2024-03-02T06:35:05;2.10;;;2.00;;
14088;SDS011;7120;52.890;6.040;2024-03-02T06:37:33;2.40;;;2.30;;
14088;SDS011;7120;52.890;6.040;2024-03-02T06:39:58;2.23;;;2.10;;
14088;SDS011;7120;52.890;6.040;2024-03-02T06:42:24;2.77;;;2.57;;
14088;SDS011;7120;52.890;6.040;2024-03-02T06:44:49;2.33;;;2.13;;
14088;SDS011;7120;52.890;6.040;2024-03-02T06:47:15;2.20;;;2.10;;
14088;SDS011;7120;52.890;6.040;2024-03-02T06:49:41;3.10;;;2.40;;
14088;SDS011;7120;52.890;6.040;2024-03-02T06:52:07;4.23;;;2.13;;
14088;SDS011;7120;52.890;6.040;2024-03-02T06:54:32;2.30;;;2.20;;
14088;SDS011;7120;52.890;6.040;2024-03-02T06:56:59;2.30;;;2.20;;
14088;SDS011;7120;52.890;6.040;2024-03-02T06:59:25;2.47;;;2.27;;
14088;SDS011;7120;52.890;6.040;2024-03-02T07:01:50;2.23;;;2.13;;
14088;SDS011;7120;52.890;6.040;2024-03-02T07:04:15;2.40;;;2.20;;
14088;SDS011;7120;52.890;6.040;2024-03-02T07:06:41;2.80;;;2.60;;
14088;SDS011;7120;52.890;6.040;2024-03-02T07:09:06;2.60;;;2.40;;
14088;SDS011;7120;52.890;6.040;2024-03-02T07:11:35;7.43;;;2.70;;
14088;SDS011;7120;52.890;6.040;2024-03-02T07:14:01;2.33;;;2.23;;
14088;SDS011;7120;52.890;6.040;2024-03-02T07:16:26;2.83;;;2.73;;
14088;SDS011;7120;52.890;6.040;2024-03-02T07:18:57;3.10;;;2.90;;
14088;SDS011;7120;52.890;6.040;2024-03-02T07:21:24;3.03;;;2.83;;
14088;SDS011;7120;52.890;6.040;2024-03-02T07:23:49;3.67;;;3.43;;
14088;SDS011;7120;52.890;6.040;2024-03-02T07:26:15;3.67;;;3.37;;
14088;SDS011;7120;52.890;6.040;2024-03-02T07:28:43;3.60;;;3.40;;
14088;SDS011;7120;52.890;6.040;2024-03-02T07:31:09;3.10;;;2.80;;
14088;SDS011;7120;52.890;6.040;2024-03-02T07:33:35;3.13;;;2.70;;
14088;SDS011;7120;52.890;6.040;2024-03-02T07:36:00;2.70;;;2.50;;
14088;SDS011;7120;52.890;6.040;2024-03-02T07:38:27;2.33;;;2.23;;
14088;SDS011;7120;52.890;6.040;2024-03-02T07:40:52;2.43;;;2.23;;
14088;SDS011;7120;52.890;6.040;2024-03-02T07:43:18;1.90;;;1.80;;
14088;SDS011;7120;52.890;6.040;2024-03-02T07:45:47;2.50;;;2.00;;
14088;SDS011;7120;52.890;6.040;2024-03-02T07:48:13;3.97;;;2.00;;
14088;SDS011;7120;52.890;6.040;2024-03-02T07:50:39;4.27;;;2.03;;
14088;SDS011;7120;52.890;6.040;2024-03-02T07:53:05;2.40;;;2.30;;
14088;SDS011;7120;52.890;6.040;2024-03-02T07:55:31;3.37;;;2.77;;
14088;SDS011;7120;52.890;6.040;2024-03-02T07:57:56;4.43;;;3.23;;
14088;SDS011;7120;52.890;6.040;2024-03-02T08:00:22;4.70;;;3.73;;
14088;SDS011;7120;52.890;6.040;2024-03-02T08:02:48;7.70;;;5.73;;
14088;SDS011;7120;52.890;6.040;2024-03-02T08:05:13;10.73;;;6.77;;
14088;SDS011;7120;52.890;6.040;2024-03-02T08:07:39;11.00;;;7.00;;
14088;SDS011;7120;52.890;6.040;2024-03-02T08:10:06;10.87;;;7.20;;
14088;SDS011;7120;52.890;6.040;2024-03-02T08:12:32;12.77;;;7.40;;
14088;SDS011;7120;52.890;6.040;2024-03-02T08:14:57;9.43;;;5.53;;
14088;SDS011;7120;52.890;6.040;2024-03-02T08:17:22;11.53;;;6.83;;
14088;SDS011;7120;52.890;6.040;2024-03-02T08:19:48;9.97;;;6.70;;
14088;SDS011;7120;52.890;6.040;2024-03-02T08:22:14;8.93;;;5.23;;
14088;SDS011;7120;52.890;6.040;2024-03-02T08:24:40;4.93;;;2.93;;
14088;SDS011;7120;52.890;6.040;2024-03-02T08:27:05;1.40;;;1.20;;
14088;SDS011;7120;52.890;6.040;2024-03-02T08:29:31;2.00;;;1.00;;
14088;SDS011;7120;52.890;6.040;2024-03-02T08:31:56;1.80;;;1.10;;
14088;SDS011;7120;52.890;6.040;2024-03-02T08:34:22;0.90;;;0.87;;
14088;SDS011;7120;52.890;6.040;2024-03-02T08:36:47;1.47;;;1.00;;
14088;SDS011;7120;52.890;6.040;2024-03-02T08:39:13;3.27;;;1.40;;
14088;SDS011;7120;52.890;6.040;2024-03-02T08:41:42;2.90;;;1.23;;
14088;SDS011;7120;52.890;6.040;2024-03-02T08:44:10;2.17;;;1.40;;
14088;SDS011;7120;52.890;6.040;2024-03-02T08:46:36;2.00;;;1.27;;
14088;SDS011;7120;52.890;6.040;2024-03-02T08:49:02;2.77;;;1.20;;
14088;SDS011;7120;52.890;6.040;2024-03-02T08:51:28;3.53;;;1.30;;
14088;SDS011;7120;52.890;6.040;2024-03-02T08:53:53;4.33;;;1.10;;
14088;SDS011;7120;52.890;6.040;2024-03-02T08:56:18;2.03;;;1.00;;
14088;SDS011;7120;52.890;6.040;2024-03-02T08:58:45;1.27;;;0.90;;
14088;SDS011;7120;52.890;6.040;2024-03-02T09:01:11;1.80;;;0.90;;
14088;SDS011;7120;52.890;6.040;2024-03-02T09:03:36;4.70;;;1.30;;
14088;SDS011;7120;52.890;6.040;2024-03-02T09:06:02;1.80;;;0.80;;
14088;SDS011;7120;52.890;6.040;2024-03-02T09:08:28;2.10;;;0.97;;
14088;SDS011;7120;52.890;6.040;2024-03-02T09:10:54;4.63;;;1.10;;
14088;SDS011;7120;52.890;6.040;2024-03-02T09:13:20;1.60;;;1.00;;
14088;SDS011;7120;52.890;6.040;2024-03-02T09:15:45;3.97;;;1.23;;
14088;SDS011;7120;52.890;6.040;2024-03-02T09:18:11;1.43;;;1.00;;
14088;SDS011;7120;52.890;6.040;2024-03-02T09:20:36;3.27;;;1.50;;
14088;SDS011;7120;52.890;6.040;2024-03-02T09:23:01;4.63;;;2.63;;
14088;SDS011;7120;52.890;6.040;2024-03-02T09:25:27;2.83;;;1.80;;
14088;SDS011;7120;52.890;6.040;2024-03-02T09:27:52;3.50;;;1.63;;
14088;SDS011;7120;52.890;6.040;2024-03-02T09:30:17;1.60;;;1.10;;
14088;SDS011;7120;52.890;6.040;2024-03-02T09:32:43;2.20;;;1.00;;
14088;SDS011;7120;52.890;6.040;2024-03-02T09:35:08;2.27;;;1.00;;
14088;SDS011;7120;52.890;6.040;2024-03-02T09:37:34;1.53;;;0.80;;
14088;SDS011;7120;52.890;6.040;2024-03-02T09:40:00;1.90;;;0.90;;
14088;SDS011;7120;52.890;6.040;2024-03-02T09:42:25;2.43;;;0.90;;
14088;SDS011;7120;52.890;6.040;2024-03-02T09:44:51;3.80;;;1.10;;
14088;SDS011;7120;52.890;6.040;2024-03-02T09:47:17;1.33;;;1.10;;
14088;SDS011;7120;52.890;6.040;2024-03-02T09:49:42;1.60;;;1.00;;
14088;SDS011;7120;52.890;6.040;2024-03-02T09:52:08;1.30;;;0.97;;
14088;SDS011;7120;52.890;6.040;2024-03-02T09:54:35;1.80;;;0.93;;
14088;SDS011;7120;52.890;6.040;2024-03-02T09:57:02;1.27;;;1.10;;
14088;SDS011;7120;52.890;6.040;2024-03-02T09:59:28;1.97;;;1.13;;
14088;SDS011;7120;52.890;6.040;2024-03-02T10:02:03;1.83;;;1.30;;
14088;SDS011;7120;52.890;6.040;2024-03-02T10:04:29;3.40;;;1.57;;
14088;SDS011;7120;52.890;6.040;2024-03-02T10:09:46;1.17;;;0.77;;
14088;SDS011;7120;52.890;6.040;2024-03-02T10:12:14;2.23;;;1.30;;
14088;SDS011;7120;52.890;6.040;2024-03-02T10:14:40;2.73;;;1.20;;
14088;SDS011;7120;52.890;6.040;2024-03-02T10:17:07;2.97;;;1.00;;
14088;SDS011;7120;52.890;6.040;2024-03-02T10:19:33;3.73;;;1.07;;
14088;SDS011;7120;52.890;6.040;2024-03-02T10:22:03;3.13;;;1.10;;
14088;SDS011;7120;52.890;6.040;2024-03-02T10:24:40;1.60;;;0.80;;
14088;SDS011;7120;52.890;6.040;2024-03-02T10:27:07;2.37;;;0.90;;
14088;SDS011;7120;52.890;6.040;2024-03-02T10:29:36;2.53;;;0.90;;
14088;SDS011;7120;52.890;6.040;2024-03-02T10:32:02;2.00;;;0.90;;
14088;SDS011;7120;52.890;6.040;2024-03-02T10:34:28;2.70;;;1.17;;
14088;SDS011;7120;52.890;6.040;2024-03-02T10:36:53;1.60;;;1.00;;
14088;SDS011;7120;52.890;6.040;2024-03-02T10:39:20;2.10;;;1.23;;
14088;SDS011;7120;52.890;6.040;2024-03-02T10:41:46;2.33;;;1.03;;
14088;SDS011;7120;52.890;6.040;2024-03-02T10:44:14;1.77;;;0.80;;
14088;SDS011;7120;52.890;6.040;2024-03-02T10:46:41;1.07;;;0.80;;
14088;SDS011;7120;52.890;6.040;2024-03-02T10:49:10;1.43;;;0.60;;
14088;SDS011;7120;52.890;6.040;2024-03-02T10:51:36;3.23;;;1.10;;
14088;SDS011;7120;52.890;6.040;2024-03-02T10:54:02;4.77;;;1.30;;
14088;SDS011;7120;52.890;6.040;2024-03-02T10:56:32;2.07;;;0.97;;
14088;SDS011;7120;52.890;6.040;2024-03-02T11:01:57;1.87;;;0.97;;
14088;SDS011;7120;52.890;6.040;2024-03-02T11:04:25;3.70;;;1.30;;
14088;SDS011;7120;52.890;6.040;2024-03-02T11:06:52;2.57;;;1.17;;
14088;SDS011;7120;52.890;6.040;2024-03-02T11:09:25;3.70;;;1.20;;
14088;SDS011;7120;52.890;6.040;2024-03-02T11:14:44;1.17;;;0.83;;
14088;SDS011;7120;52.890;6.040;2024-03-02T11:17:09;1.40;;;1.03;;
14088;SDS011;7120;52.890;6.040;2024-03-02T11:19:37;1.63;;;0.90;;
14088;SDS011;7120;52.890;6.040;2024-03-02T11:22:04;2.50;;;0.90;;
14088;SDS011;7120;52.890;6.040;2024-03-02T11:24:30;1.67;;;0.97;;
14088;SDS011;7120;52.890;6.040;2024-03-02T11:26:58;2.23;;;1.10;;
14088;SDS011;7120;52.890;6.040;2024-03-02T11:32:02;2.90;;;0.87;;
14088;SDS011;7120;52.890;6.040;2024-03-02T11:34:31;2.40;;;1.10;;
14088;SDS011;7120;52.890;6.040;2024-03-02T11:36:58;3.03;;;1.57;;
14088;SDS011;7120;52.890;6.040;2024-03-02T11:39:26;2.07;;;1.10;;
14088;SDS011;7120;52.890;6.040;2024-03-02T11:41:52;4.17;;;1.37;;
14088;SDS011;7120;52.890;6.040;2024-03-02T11:44:17;1.97;;;0.87;;
14088;SDS011;7120;52.890;6.040;2024-03-02T11:46:52;3.17;;;1.20;;
14088;SDS011;7120;52.890;6.040;2024-03-02T11:52:17;3.00;;;1.00;;
14088;SDS011;7120;52.890;6.040;2024-03-02T11:54:46;1.20;;;0.80;;
14088;SDS011;7120;52.890;6.040;2024-03-02T11:57:14;2.27;;;0.90;;
14088;SDS011;7120;52.890;6.040;2024-03-02T11:59:41;2.03;;;0.80;;
14088;SDS011;7120;52.890;6.040;2024-03-02T12:02:12;2.33;;;1.07;;
14088;SDS011;7120;52.890;6.040;2024-03-02T12:04:44;3.47;;;1.10;;
14088;SDS011;7120;52.890;6.040;2024-03-02T12:07:12;1.93;;;1.07;;
14088;SDS011;7120;52.890;6.040;2024-03-02T12:09:43;3.60;;;1.10;;
14088;SDS011;7120;52.890;6.040;2024-03-02T12:12:09;1.67;;;0.90;;
14088;SDS011;7120;52.890;6.040;2024-03-02T12:14:36;2.30;;;1.10;;
14088;SDS011;7120;52.890;6.040;2024-03-02T12:17:03;2.07;;;0.90;;
14088;SDS011;7120;52.890;6.040;2024-03-02T12:19:29;1.43;;;1.00;;
14088;SDS011;7120;52.890;6.040;2024-03-02T12:21:58;1.33;;;1.00;;
14088;SDS011;7120;52.890;6.040;2024-03-02T12:24:27;2.90;;;0.80;;
14088;SDS011;7120;52.890;6.040;2024-03-02T12:26:55;2.07;;;0.97;;
14088;SDS011;7120;52.890;6.040;2024-03-02T12:29:22;3.10;;;1.00;;
14088;SDS011;7120;52.890;6.040;2024-03-02T12:31:49;2.00;;;0.90;;
14088;SDS011;7120;52.890;6.040;2024-03-02T12:34:15;1.87;;;0.93;;
14088;SDS011;7120;52.890;6.040;2024-03-02T12:36:46;1.70;;;0.90;;
14088;SDS011;7120;52.890;6.040;2024-03-02T12:39:14;2.43;;;0.90;;
14088;SDS011;7120;52.890;6.040;2024-03-02T12:41:43;2.50;;;1.10;;
14088;SDS011;7120;52.890;6.040;2024-03-02T12:44:08;3.43;;;1.13;;
14088;SDS011;7120;52.890;6.040;2024-03-02T12:46:34;1.93;;;0.90;;
14088;SDS011;7120;52.890;6.040;2024-03-02T12:49:07;1.47;;;0.70;;
14088;SDS011;7120;52.890;6.040;2024-03-02T12:51:38;1.93;;;0.90;;
14088;SDS011;7120;52.890;6.040;2024-03-02T12:54:05;2.27;;;1.13;;
14088;SDS011;7120;52.890;6.040;2024-03-02T12:56:35;1.67;;;1.00;;
14088;SDS011;7120;52.890;6.040;2024-03-02T12:59:02;3.53;;;1.20;;
14088;SDS011;7120;52.890;6.040;2024-03-02T13:01:28;2.17;;;1.10;;
14088;SDS011;7120;52.890;6.040;2024-03-02T13:03:53;6.00;;;1.60;;
14088;SDS011;7120;52.890;6.040;2024-03-02T13:06:22;3.10;;;1.50;;
14088;SDS011;7120;52.890;6.040;2024-03-02T13:08:48;2.60;;;1.00;;
14088;SDS011;7120;52.890;6.040;2024-03-02T13:11:14;3.73;;;1.00;;
14088;SDS011;7120;52.890;6.040;2024-03-02T13:13:41;2.03;;;1.10;;
14088;SDS011;7120;52.890;6.040;2024-03-02T13:16:09;2.03;;;1.10;;
14088;SDS011;7120;52.890;6.040;2024-03-02T13:18:35;1.73;;;1.10;;
14088;SDS011;7120;52.890;6.040;2024-03-02T13:21:00;1.13;;;0.97;;
14088;SDS011;7120;52.890;6.040;2024-03-02T13:23:26;1.50;;;1.10;;
14088;SDS011;7120;52.890;6.040;2024-03-02T13:25:51;1.03;;;0.93;;
14088;SDS011;7120;52.890;6.040;2024-03-02T13:28:17;1.90;;;1.13;;
14088;SDS011;7120;52.890;6.040;2024-03-02T13:30:42;2.33;;;0.90;;
14088;SDS011;7120;52.890;6.040;2024-03-02T13:33:08;2.40;;;0.90;;
14088;SDS011;7120;52.890;6.040;2024-03-02T13:35:33;1.57;;;1.00;;
14088;SDS011;7120;52.890;6.040;2024-03-02T13:37:58;3.33;;;1.20;;
14088;SDS011;7120;52.890;6.040;2024-03-02T13:40:24;1.73;;;0.93;;
14088;SDS011;7120;52.890;6.040;2024-03-02T13:42:49;2.20;;;1.30;;
14088;SDS011;7120;52.890;6.040;2024-03-02T13:45:16;1.17;;;0.97;;
14088;SDS011;7120;52.890;6.040;2024-03-02T13:47:43;2.43;;;1.10;;
14088;SDS011;7120;52.890;6.040;2024-03-02T13:50:08;2.53;;;1.10;;
14088;SDS011;7120;52.890;6.040;2024-03-02T13:52:34;3.47;;;1.47;;
14088;SDS011;7120;52.890;6.040;2024-03-02T13:54:59;1.53;;;1.20;;
14088;SDS011;7120;52.890;6.040;2024-03-02T13:57:24;2.70;;;1.00;;
14088;SDS011;7120;52.890;6.040;2024-03-02T13:59:50;1.80;;;1.00;;
14088;SDS011;7120;52.890;6.040;2024-03-02T14:02:17;2.80;;;1.20;;
14088;SDS011;7120;52.890;6.040;2024-03-02T14:04:42;1.87;;;1.20;;
14088;SDS011;7120;52.890;6.040;2024-03-02T14:07:08;1.80;;;1.10;;
14088;SDS011;7120;52.890;6.040;2024-03-02T14:09:33;2.00;;;1.27;;
14088;SDS011;7120;52.890;6.040;2024-03-02T14:11:59;1.67;;;1.50;;
14088;SDS011;7120;52.890;6.040;2024-03-02T14:14:27;2.70;;;1.67;;
14088;SDS011;7120;52.890;6.040;2024-03-02T14:16:54;2.10;;;1.20;;
14088;SDS011;7120;52.890;6.040;2024-03-02T14:19:20;2.17;;;1.40;;
14088;SDS011;7120;52.890;6.040;2024-03-02T14:21:46;2.77;;;1.33;;
14088;SDS011;7120;52.890;6.040;2024-03-02T14:24:12;3.77;;;1.30;;
14088;SDS011;7120;52.890;6.040;2024-03-02T14:26:38;2.47;;;1.20;;
14088;SDS011;7120;52.890;6.040;2024-03-02T14:29:03;2.33;;;1.20;;
14088;SDS011;7120;52.890;6.040;2024-03-02T14:31:29;2.00;;;1.40;;
14088;SDS011;7120;52.890;6.040;2024-03-02T14:33:58;3.57;;;1.50;;
14088;SDS011;7120;52.890;6.040;2024-03-02T14:36:24;4.17;;;1.53;;
14088;SDS011;7120;52.890;6.040;2024-03-02T14:38:50;2.43;;;1.30;;
14088;SDS011;7120;52.890;6.040;2024-03-02T14:41:16;2.97;;;1.57;;
14088;SDS011;7120;52.890;6.040;2024-03-02T14:43:41;2.67;;;1.50;;
14088;SDS011;7120;52.890;6.040;2024-03-02T14:46:07;2.57;;;1.57;;
14088;SDS011;7120;52.890;6.040;2024-03-02T14:48:35;2.17;;;1.60;;
14088;SDS011;7120;52.890;6.040;2024-03-02T14:51:01;2.43;;;1.60;;
14088;SDS011;7120;52.890;6.040;2024-03-02T14:53:27;2.43;;;1.83;;
14088;SDS011;7120;52.890;6.040;2024-03-02T14:55:53;1.77;;;1.67;;
14088;SDS011;7120;52.890;6.040;2024-03-02T14:58:18;3.30;;;1.93;;
14088;SDS011;7120;52.890;6.040;2024-03-02T15:00:44;4.40;;;2.07;;
14088;SDS011;7120;52.890;6.040;2024-03-02T15:03:09;2.87;;;1.97;;
14088;SDS011;7120;52.890;6.040;2024-03-02T15:05:38;3.77;;;2.00;;
14088;SDS011;7120;52.890;6.040;2024-03-02T15:08:04;2.63;;;2.10;;
14088;SDS011;7120;52.890;6.040;2024-03-02T15:10:30;2.80;;;2.13;;
14088;SDS011;7120;52.890;6.040;2024-03-02T15:12:56;4.50;;;2.60;;